sensor_id;sensor_type;location;lat;lon;timestamp;pressure;altitude;pressure_sealevel;temperature;humidity
65754;BME280;52488;47.502;18.940;2023-02-02T00:00:13;97812.72;;;2.78;94.20
65754;BME280;52488;47.502;18.940;2023-02-02T00:01:18;97808.38;;;2.83;94.01
65754;BME280;52488;47.502;18.940;2023-02-02T00:02:21;97809.47;;;2.87;93.60
65754;BME280;52488;47.502;18.940;2023-02-02T00:03:25;97813.63;;;2.88;92.78
65754;BME280;52488;47.502;18.940;2023-02-02T00:04:31;97808.22;;;2.88;92.90
65754;BME280;52488;47.502;18.940;2023-02-02T00:05:34;97809.47;;;2.87;93.12
65754;BME280;52488;47.502;18.940;2023-02-02T00:06:38;97803.31;;;2.79;93.56
65754;BME280;52488;47.502;18.940;2023-02-02T00:07:40;97808.72;;;2.79;93.95
65754;BME280;52488;47.502;18.940;2023-02-02T00:08:44;97812.00;;;2.78;94.17
65754;BME280;52488;47.502;18.940;2023-02-02T00:09:47;97807.63;;;2.75;94.42
65754;BME280;52488;47.502;18.940;2023-02-02T00:10:50;97810.50;;;2.77;94.65
65754;BME280;52488;47.502;18.940;2023-02-02T00:11:53;97816.66;;;2.77;94.80
65754;BME280;52488;47.502;18.940;2023-02-02T00:12:56;97809.47;;;2.80;94.87
65754;BME280;52488;47.502;18.940;2023-02-02T00:13:59;97813.06;;;2.82;94.69
65754;BME280;52488;47.502;18.940;2023-02-02T00:15:03;97813.47;;;2.86;93.82
65754;BME280;52488;47.502;18.940;2023-02-02T00:17:30;97816.34;;;2.88;92.75
65754;BME280;52488;47.502;18.940;2023-02-02T00:18:33;97818.16;;;2.86;92.52
65754;BME280;52488;47.502;18.940;2023-02-02T00:19:36;97814.37;;;2.89;92.61
65754;BME280;52488;47.502;18.940;2023-02-02T00:20:39;97815.09;;;2.89;92.59
65754;BME280;52488;47.502;18.940;2023-02-02T00:21:42;97808.06;;;2.94;91.83
65754;BME280;52488;47.502;18.940;2023-02-02T00:22:46;97804.44;;;2.99;91.75
65754;BME280;52488;47.502;18.940;2023-02-02T00:23:49;97807.53;;;2.96;91.71
65754;BME280;52488;47.502;18.940;2023-02-02T00:24:52;97797.94;;;2.95;91.93
65754;BME280;52488;47.502;18.940;2023-02-02T00:25:56;97799.91;;;2.94;91.85
65754;BME280;52488;47.502;18.940;2023-02-02T00:26:59;97803.72;;;2.91;92.00
65754;BME280;52488;47.502;18.940;2023-02-02T00:28:02;97798.63;;;2.87;92.22
65754;BME280;52488;47.502;18.940;2023-02-02T00:29:06;97802.25;;;2.90;92.36
65754;BME280;52488;47.502;18.940;2023-02-02T00:30:10;97803.00;;;2.90;92.45
65754;BME280;52488;47.502;18.940;2023-02-02T00:31:13;97798.28;;;2.91;92.51
65754;BME280;52488;47.502;18.940;2023-02-02T00:32:16;97795.41;;;2.89;92.45
65754;BME280;52488;47.502;18.940;2023-02-02T00:33:19;97801.53;;;2.89;92.35
65754;BME280;52488;47.502;18.940;2023-02-02T00:34:23;97802.06;;;2.88;92.43
65754;BME280;52488;47.502;18.940;2023-02-02T00:35:26;97797.19;;;2.86;92.61
65754;BME280;52488;47.502;18.940;2023-02-02T00:36:29;97786.50;;;2.88;92.83
65754;BME280;52488;47.502;18.940;2023-02-02T00:37:33;97776.19;;;2.87;92.79
65754;BME280;52488;47.502;18.940;2023-02-02T00:38:36;97778.72;;;2.85;92.78
65754;BME280;52488;47.502;18.940;2023-02-02T00:39:39;97770.81;;;2.95;91.81
65754;BME280;52488;47.502;18.940;2023-02-02T00:40:46;97768.28;;;2.97;91.12
65754;BME280;52488;47.502;18.940;2023-02-02T00:41:49;97769.53;;;2.96;91.04
65754;BME280;52488;47.502;18.940;2023-02-02T00:42:52;97771.72;;;2.97;90.99
65754;BME280;52488;47.502;18.940;2023-02-02T00:43:55;97757.06;;;3.00;90.95
65754;BME280;52488;47.502;18.940;2023-02-02T00:45:16;97767.37;;;3.02;90.73
65754;BME280;52488;47.502;18.940;2023-02-02T00:46:20;97775.69;;;3.04;90.55
65754;BME280;52488;47.502;18.940;2023-02-02T00:47:24;97787.28;;;3.04;90.49
65754;BME280;52488;47.502;18.940;2023-02-02T00:48:27;97799.41;;;3.03;90.05
65754;BME280;52488;47.502;18.940;2023-02-02T00:49:30;97801.41;;;3.03;89.58
65754;BME280;52488;47.502;18.940;2023-02-02T00:50:33;97825.44;;;2.99;89.48
65754;BME280;52488;47.502;18.940;2023-02-02T00:51:36;97813.69;;;3.04;89.00
65754;BME280;52488;47.502;18.940;2023-02-02T00:52:39;97812.06;;;3.01;89.18
65754;BME280;52488;47.502;18.940;2023-02-02T00:53:42;97808.81;;;3.10;88.96
65754;BME280;52488;47.502;18.940;2023-02-02T00:54:45;97810.09;;;3.09;88.40
65754;BME280;52488;47.502;18.940;2023-02-02T00:55:48;97821.34;;;3.13;88.02
65754;BME280;52488;47.502;18.940;2023-02-02T00:56:51;97838.50;;;3.08;88.31
65754;BME280;52488;47.502;18.940;2023-02-02T00:57:55;97824.06;;;3.13;87.49
65754;BME280;52488;47.502;18.940;2023-02-02T00:58:58;97821.50;;;3.15;87.15
65754;BME280;52488;47.502;18.940;2023-02-02T01:00:01;97818.97;;;3.09;87.76
65754;BME280;52488;47.502;18.940;2023-02-02T01:01:05;97824.22;;;3.07;88.18
65754;BME280;52488;47.502;18.940;2023-02-02T01:02:16;97824.38;;;3.09;87.78
65754;BME280;52488;47.502;18.940;2023-02-02T01:03:19;97826.53;;;3.03;87.74
65754;BME280;52488;47.502;18.940;2023-02-02T01:04:23;97818.06;;;3.07;87.94
65754;BME280;52488;47.502;18.940;2023-02-02T01:05:26;97822.94;;;3.01;88.32
65754;BME280;52488;47.502;18.940;2023-02-02T01:06:30;97822.00;;;2.98;88.46
65754;BME280;52488;47.502;18.940;2023-02-02T01:07:33;97812.75;;;2.94;88.85
65754;BME280;52488;47.502;18.940;2023-02-02T01:08:36;97808.25;;;2.96;89.10
65754;BME280;52488;47.502;18.940;2023-02-02T01:09:42;97805.00;;;2.98;89.20
65754;BME280;52488;47.502;18.940;2023-02-02T01:10:45;97808.28;;;3.04;89.17
65754;BME280;52488;47.502;18.940;2023-02-02T01:11:48;97806.25;;;2.97;88.97
65754;BME280;52488;47.502;18.940;2023-02-02T01:12:51;97806.59;;;2.93;89.47
65754;BME280;52488;47.502;18.940;2023-02-02T01:13:54;97798.47;;;2.93;89.45
65754;BME280;52488;47.502;18.940;2023-02-02T01:14:57;97804.81;;;2.96;89.30
65754;BME280;52488;47.502;18.940;2023-02-02T01:16:01;97809.69;;;2.89;89.26
65754;BME280;52488;47.502;18.940;2023-02-02T01:17:05;97796.69;;;2.96;89.37
65754;BME280;52488;47.502;18.940;2023-02-02T01:18:08;97791.75;;;2.94;89.08
65754;BME280;52488;47.502;18.940;2023-02-02T01:19:14;97797.91;;;2.87;89.02
65754;BME280;52488;47.502;18.940;2023-02-02T01:20:18;97799.72;;;2.92;89.24
65754;BME280;52488;47.502;18.940;2023-02-02T01:21:22;97799.88;;;2.86;89.16
65754;BME280;52488;47.502;18.940;2023-02-02T01:22:25;97806.41;;;2.83;89.42
65754;BME280;52488;47.502;18.940;2023-02-02T01:23:29;97798.78;;;2.82;89.62
65754;BME280;52488;47.502;18.940;2023-02-02T01:24:32;97797.50;;;2.75;89.94
65754;BME280;52488;47.502;18.940;2023-02-02T01:25:35;97804.72;;;2.73;90.26
65754;BME280;52488;47.502;18.940;2023-02-02T01:26:40;97820.47;;;2.74;90.20
65754;BME280;52488;47.502;18.940;2023-02-02T01:27:43;97815.41;;;2.78;89.99
65754;BME280;52488;47.502;18.940;2023-02-02T01:28:46;97813.37;;;2.71;90.07
65754;BME280;52488;47.502;18.940;2023-02-02T01:29:49;97819.34;;;2.70;89.92
65754;BME280;52488;47.502;18.940;2023-02-02T01:30:52;97820.06;;;2.70;89.94
65754;BME280;52488;47.502;18.940;2023-02-02T01:31:56;97820.22;;;2.64;89.83
65754;BME280;52488;47.502;18.940;2023-02-02T01:32:59;97808.66;;;2.64;90.21
65754;BME280;52488;47.502;18.940;2023-02-02T01:34:02;97812.97;;;2.59;90.45
65754;BME280;52488;47.502;18.940;2023-02-02T01:35:06;97821.47;;;2.56;91.00
65754;BME280;52488;47.502;18.940;2023-02-02T01:36:14;97816.56;;;2.54;91.30
65754;BME280;52488;47.502;18.940;2023-02-02T01:37:18;97831.94;;;2.59;91.26
65754;BME280;52488;47.502;18.940;2023-02-02T01:38:23;97824.19;;;2.56;91.19
65754;BME280;52488;47.502;18.940;2023-02-02T01:39:27;97830.50;;;2.58;91.26
65754;BME280;52488;47.502;18.940;2023-02-02T01:40:30;97820.59;;;2.61;91.22
65754;BME280;52488;47.502;18.940;2023-02-02T01:41:33;97827.25;;;2.60;91.20
65754;BME280;52488;47.502;18.940;2023-02-02T01:42:36;97818.38;;;2.59;91.00
65754;BME280;52488;47.502;18.940;2023-02-02T01:45:57;97807.91;;;2.56;90.65
65754;BME280;52488;47.502;18.940;2023-02-02T01:47:01;97804.22;;;2.46;91.21
65754;BME280;52488;47.502;18.940;2023-02-02T01:48:04;97798.09;;;2.45;91.63
65754;BME280;52488;47.502;18.940;2023-02-02T01:50:14;97791.53;;;2.41;92.06
65754;BME280;52488;47.502;18.940;2023-02-02T01:51:20;97796.03;;;2.38;92.06
65754;BME280;52488;47.502;18.940;2023-02-02T01:52:26;97788.84;;;2.41;91.89
65754;BME280;52488;47.502;18.940;2023-02-02T01:53:31;97802.72;;;2.37;92.07
65754;BME280;52488;47.502;18.940;2023-02-02T01:54:38;97790.09;;;2.40;91.69
65754;BME280;52488;47.502;18.940;2023-02-02T01:55:42;97796.25;;;2.40;91.47
65754;BME280;52488;47.502;18.940;2023-02-02T01:56:53;97787.56;;;2.42;91.38
65754;BME280;52488;47.502;18.940;2023-02-02T01:58:04;97781.44;;;2.41;91.42
65754;BME280;52488;47.502;18.940;2023-02-02T01:59:09;97779.62;;;2.44;91.57
65754;BME280;52488;47.502;18.940;2023-02-02T02:00:14;97781.97;;;2.40;91.43
65754;BME280;52488;47.502;18.940;2023-02-02T02:01:17;97778.72;;;2.41;91.65
65754;BME280;52488;47.502;18.940;2023-02-02T02:02:21;97774.19;;;2.44;91.47
65754;BME280;52488;47.502;18.940;2023-02-02T02:03:25;97777.44;;;2.42;91.42
65754;BME280;52488;47.502;18.940;2023-02-02T02:04:31;97781.75;;;2.37;91.61
65754;BME280;52488;47.502;18.940;2023-02-02T02:05:37;97772.72;;;2.35;91.44
65754;BME280;52488;47.502;18.940;2023-02-02T02:06:43;97772.75;;;2.43;91.32
65754;BME280;52488;47.502;18.940;2023-02-02T02:07:48;97764.62;;;2.43;91.11
65754;BME280;52488;47.502;18.940;2023-02-02T02:09:02;97771.31;;;2.42;90.87
65754;BME280;52488;47.502;18.940;2023-02-02T02:10:06;97773.13;;;2.39;91.11
65754;BME280;52488;47.502;18.940;2023-02-02T02:11:10;97774.34;;;2.38;91.36
65754;BME280;52488;47.502;18.940;2023-02-02T02:12:14;97767.31;;;2.35;91.54
65754;BME280;52488;47.502;18.940;2023-02-02T02:13:18;97761.88;;;2.35;91.71
65754;BME280;52488;47.502;18.940;2023-02-02T02:14:23;97765.50;;;2.37;91.92
65754;BME280;52488;47.502;18.940;2023-02-02T02:16:07;97753.37;;;2.38;91.77
65754;BME280;52488;47.502;18.940;2023-02-02T02:18:51;97755.53;;;2.32;92.18
65754;BME280;52488;47.502;18.940;2023-02-02T02:23:43;97759.72;;;2.33;92.30
65754;BME280;52488;47.502;18.940;2023-02-02T02:28:42;97765.31;;;2.35;92.78
65754;BME280;52488;47.502;18.940;2023-02-02T02:30:27;97770.19;;;2.37;92.60
65754;BME280;52488;47.502;18.940;2023-02-02T02:33:14;97782.13;;;2.34;93.26
65754;BME280;52488;47.502;18.940;2023-02-02T02:37:04;97776.16;;;2.35;93.42
65754;BME280;52488;47.502;18.940;2023-02-02T02:38:24;97781.41;;;2.33;93.47
65754;BME280;52488;47.502;18.940;2023-02-02T02:39:44;97787.88;;;2.30;93.63
65754;BME280;52488;47.502;18.940;2023-02-02T02:40:58;97786.06;;;2.33;93.69
65754;BME280;52488;47.502;18.940;2023-02-02T02:42:17;97779.06;;;2.37;93.55
65754;BME280;52488;47.502;18.940;2023-02-02T02:43:26;97783.72;;;2.29;93.69
65754;BME280;52488;47.502;18.940;2023-02-02T02:44:33;97778.22;;;2.22;94.15
65754;BME280;52488;47.502;18.940;2023-02-02T02:45:37;97794.31;;;2.20;94.50
65754;BME280;52488;47.502;18.940;2023-02-02T02:46:41;97789.44;;;2.18;94.60
65754;BME280;52488;47.502;18.940;2023-02-02T02:47:47;97787.62;;;2.21;94.63
65754;BME280;52488;47.502;18.940;2023-02-02T02:48:51;97780.22;;;2.21;94.68
65754;BME280;52488;47.502;18.940;2023-02-02T02:49:55;97775.19;;;2.25;94.74
65754;BME280;52488;47.502;18.940;2023-02-02T02:51:40;97780.94;;;2.22;94.62
65754;BME280;52488;47.502;18.940;2023-02-02T02:52:32;97780.22;;;2.21;94.70
65754;BME280;52488;47.502;18.940;2023-02-02T02:53:36;97787.41;;;2.11;95.10
65754;BME280;52488;47.502;18.940;2023-02-02T02:54:43;97783.03;;;2.08;95.33
65754;BME280;52488;47.502;18.940;2023-02-02T02:55:56;97786.88;;;2.12;95.45
65754;BME280;52488;47.502;18.940;2023-02-02T03:00:57;97783.44;;;2.12;95.34
65754;BME280;52488;47.502;18.940;2023-02-02T03:02:13;97779.78;;;2.09;95.58
65754;BME280;52488;47.502;18.940;2023-02-02T03:03:51;97770.03;;;2.06;95.67
65754;BME280;52488;47.502;18.940;2023-02-02T03:06:41;97778.88;;;2.07;96.00
65754;BME280;52488;47.502;18.940;2023-02-02T03:07:54;97778.66;;;2.05;96.15
65754;BME280;52488;47.502;18.940;2023-02-02T03:09:00;97785.16;;;2.02;96.35
65754;BME280;52488;47.502;18.940;2023-02-02T03:10:10;97791.63;;;1.99;96.62
65754;BME280;52488;47.502;18.940;2023-02-02T03:11:15;97785.16;;;2.02;96.67
65754;BME280;52488;47.502;18.940;2023-02-02T03:12:22;97783.91;;;2.03;96.72
65754;BME280;52488;47.502;18.940;2023-02-02T03:13:26;97782.25;;;2.00;96.82
65754;BME280;52488;47.502;18.940;2023-02-02T03:14:34;97778.31;;;2.01;96.93
65754;BME280;52488;47.502;18.940;2023-02-02T03:15:43;97780.81;;;1.99;97.09
65754;BME280;52488;47.502;18.940;2023-02-02T03:16:50;97780.06;;;1.98;97.32
65754;BME280;52488;47.502;18.940;2023-02-02T03:17:53;97777.22;;;2.04;97.31
65754;BME280;52488;47.502;18.940;2023-02-02T03:18:56;97777.94;;;2.04;97.28
65754;BME280;52488;47.502;18.940;2023-02-02T03:19:59;97778.34;;;2.08;97.24
65754;BME280;52488;47.502;18.940;2023-02-02T03:21:03;97788.06;;;2.04;97.25
65754;BME280;52488;47.502;18.940;2023-02-02T03:22:06;97782.50;;;2.09;97.28
65754;BME280;52488;47.502;18.940;2023-02-02T03:23:09;97799.28;;;2.08;97.21
65754;BME280;52488;47.502;18.940;2023-02-02T03:24:12;97798.56;;;2.07;97.23
65754;BME280;52488;47.502;18.940;2023-02-02T03:25:15;97801.69;;;2.11;97.10
65754;BME280;52488;47.502;18.940;2023-02-02T03:26:18;97803.66;;;2.11;97.07
65754;BME280;52488;47.502;18.940;2023-02-02T03:27:22;97805.28;;;2.14;97.00
65754;BME280;52488;47.502;18.940;2023-02-02T03:28:26;97808.00;;;2.14;96.93
65754;BME280;52488;47.502;18.940;2023-02-02T03:29:30;97807.09;;;2.11;97.02
65754;BME280;52488;47.502;18.940;2023-02-02T03:30:33;97807.59;;;2.10;97.17
65754;BME280;52488;47.502;18.940;2023-02-02T03:31:36;97796.25;;;2.11;97.11
65754;BME280;52488;47.502;18.940;2023-02-02T03:32:40;97792.81;;;2.11;97.13
65754;BME280;52488;47.502;18.940;2023-02-02T03:33:43;97795.88;;;2.07;97.11
65754;BME280;52488;47.502;18.940;2023-02-02T03:34:46;97793.88;;;2.08;97.18
65754;BME280;52488;47.502;18.940;2023-02-02T03:35:49;97789.88;;;2.01;97.14
65754;BME280;52488;47.502;18.940;2023-02-02T03:36:52;97803.19;;;1.99;97.33
65754;BME280;52488;47.502;18.940;2023-02-02T03:37:55;97797.06;;;1.99;97.39
65754;BME280;52488;47.502;18.940;2023-02-02T03:38:59;97802.28;;;1.97;97.49
65754;BME280;52488;47.502;18.940;2023-02-02T03:40:03;97796.19;;;2.04;97.42
65754;BME280;52488;47.502;18.940;2023-02-02T03:41:06;97803.19;;;1.99;97.28
65754;BME280;52488;47.502;18.940;2023-02-02T03:42:09;97800.69;;;2.01;97.18
65754;BME280;52488;47.502;18.940;2023-02-02T03:43:12;97808.28;;;2.03;96.99
65754;BME280;52488;47.502;18.940;2023-02-02T03:44:15;97804.66;;;2.00;96.46
65754;BME280;52488;47.502;18.940;2023-02-02T03:45:18;97804.66;;;2.00;96.36
65754;BME280;52488;47.502;18.940;2023-02-02T03:46:21;97803.00;;;1.97;96.30
65754;BME280;52488;47.502;18.940;2023-02-02T03:47:27;97800.31;;;1.97;96.42
65754;BME280;52488;47.502;18.940;2023-02-02T03:48:35;97805.41;;;2.01;96.36
65754;BME280;52488;47.502;18.940;2023-02-02T03:49:38;97807.25;;;2.06;95.97
65754;BME280;52488;47.502;18.940;2023-02-02T03:50:41;97811.00;;;2.03;95.85
65754;BME280;52488;47.502;18.940;2023-02-02T03:51:44;97807.03;;;2.04;95.87
65754;BME280;52488;47.502;18.940;2023-02-02T03:52:47;97804.66;;;2.00;95.67
65754;BME280;52488;47.502;18.940;2023-02-02T03:53:50;97802.69;;;2.01;95.65
65754;BME280;52488;47.502;18.940;2023-02-02T03:54:53;97800.84;;;1.96;95.83
65754;BME280;52488;47.502;18.940;2023-02-02T03:55:56;97797.44;;;2.03;95.84
65754;BME280;52488;47.502;18.940;2023-02-02T03:56:59;97800.47;;;1.99;95.57
65754;BME280;52488;47.502;18.940;2023-02-02T03:58:02;97783.00;;;2.00;95.40
65754;BME280;52488;47.502;18.940;2023-02-02T03:59:06;97795.22;;;1.94;95.26
65754;BME280;52488;47.502;18.940;2023-02-02T04:00:10;97784.91;;;1.92;95.32
65754;BME280;52488;47.502;18.940;2023-02-02T04:01:14;97788.75;;;1.97;94.96
65754;BME280;52488;47.502;18.940;2023-02-02T04:02:17;97782.06;;;1.98;94.70
65754;BME280;52488;47.502;18.940;2023-02-02T04:03:20;97781.66;;;1.94;94.08
65754;BME280;52488;47.502;18.940;2023-02-02T04:04:23;97775.47;;;1.85;94.25
65754;BME280;52488;47.502;18.940;2023-02-02T04:05:26;97769.88;;;1.83;94.34
65754;BME280;52488;47.502;18.940;2023-02-02T04:06:29;97768.41;;;1.82;94.37
65754;BME280;52488;47.502;18.940;2023-02-02T04:07:33;97774.53;;;1.83;94.29
65754;BME280;52488;47.502;18.940;2023-02-02T04:08:36;97767.31;;;1.78;94.41
65754;BME280;52488;47.502;18.940;2023-02-02T04:09:41;97766.56;;;1.77;94.06
65754;BME280;52488;47.502;18.940;2023-02-02T04:10:44;97770.16;;;1.72;94.12
65754;BME280;52488;47.502;18.940;2023-02-02T04:11:47;97768.31;;;1.67;94.39
65754;BME280;52488;47.502;18.940;2023-02-02T04:12:50;97767.22;;;1.70;94.28
65754;BME280;52488;47.502;18.940;2023-02-02T04:13:53;97768.50;;;1.69;94.06
65754;BME280;52488;47.502;18.940;2023-02-02T04:14:56;97778.19;;;1.65;94.10
65754;BME280;52488;47.502;18.940;2023-02-02T04:16:00;97763.22;;;1.64;94.13
65754;BME280;52488;47.502;18.940;2023-02-02T04:17:03;97762.16;;;1.67;94.03
65754;BME280;52488;47.502;18.940;2023-02-02T04:18:06;97752.78;;;1.68;93.85
65754;BME280;52488;47.502;18.940;2023-02-02T04:19:10;97764.88;;;1.67;93.70
65754;BME280;52488;47.502;18.940;2023-02-02T04:20:15;97752.06;;;1.67;93.53
65754;BME280;52488;47.502;18.940;2023-02-02T04:21:18;97754.38;;;1.63;93.49
65754;BME280;52488;47.502;18.940;2023-02-02T04:22:21;97757.81;;;1.64;93.49
65754;BME280;52488;47.502;18.940;2023-02-02T04:23:24;97756.28;;;1.55;93.74
65754;BME280;52488;47.502;18.940;2023-02-02T04:24:27;97768.56;;;1.56;93.92
65754;BME280;52488;47.502;18.940;2023-02-02T04:25:30;97757.00;;;1.55;94.00
65754;BME280;52488;47.502;18.940;2023-02-02T04:26:33;97758.19;;;1.47;94.01
65754;BME280;52488;47.502;18.940;2023-02-02T04:27:36;97758.94;;;1.47;94.07
65754;BME280;52488;47.502;18.940;2023-02-02T04:28:40;97749.91;;;1.45;94.13
65754;BME280;52488;47.502;18.940;2023-02-02T04:29:43;97753.97;;;1.38;94.29
65754;BME280;52488;47.502;18.940;2023-02-02T04:30:46;97753.25;;;1.38;94.57
65754;BME280;52488;47.502;18.940;2023-02-02T04:31:49;97745.66;;;1.36;94.66
65754;BME280;52488;47.502;18.940;2023-02-02T04:32:53;97759.72;;;1.35;94.52
65754;BME280;52488;47.502;18.940;2023-02-02T04:33:57;97751.38;;;1.32;94.58
65754;BME280;52488;47.502;18.940;2023-02-02T04:35:00;97755.34;;;1.31;94.68
65754;BME280;52488;47.502;18.940;2023-02-02T04:36:04;97756.81;;;1.32;94.64
65754;BME280;52488;47.502;18.940;2023-02-02T04:37:07;97740.38;;;1.30;94.73
65754;BME280;52488;47.502;18.940;2023-02-02T04:38:10;97752.47;;;1.29;94.76
65754;BME280;52488;47.502;18.940;2023-02-02T04:39:14;97739.66;;;1.30;94.57
65754;BME280;52488;47.502;18.940;2023-02-02T04:40:17;97739.13;;;1.31;94.58
65754;BME280;52488;47.502;18.940;2023-02-02T04:41:21;97741.28;;;1.33;94.29
65754;BME280;52488;47.502;18.940;2023-02-02T04:42:24;97740.97;;;1.37;94.17
65754;BME280;52488;47.502;18.940;2023-02-02T04:43:27;97742.03;;;1.34;94.12
65754;BME280;52488;47.502;18.940;2023-02-02T04:44:30;97740.56;;;1.32;94.12
65754;BME280;52488;47.502;18.940;2023-02-02T04:45:37;97735.50;;;1.29;94.16
65754;BME280;52488;47.502;18.940;2023-02-02T04:46:44;97746.97;;;1.22;94.29
65754;BME280;52488;47.502;18.940;2023-02-02T04:47:47;97749.06;;;1.16;94.51
65754;BME280;52488;47.502;18.940;2023-02-02T04:48:50;97746.38;;;1.16;94.68
65754;BME280;52488;47.502;18.940;2023-02-02T04:49:53;97741.53;;;1.22;94.50
65754;BME280;52488;47.502;18.940;2023-02-02T04:51:05;97745.13;;;1.17;94.46
65754;BME280;52488;47.502;18.940;2023-02-02T04:52:10;97745.75;;;1.10;94.76
65754;BME280;52488;47.502;18.940;2023-02-02T04:53:13;97751.59;;;1.14;94.73
65754;BME280;52488;47.502;18.940;2023-02-02T04:54:16;97750.13;;;1.13;94.65
65754;BME280;52488;47.502;18.940;2023-02-02T04:55:20;97749.59;;;1.14;94.58
65754;BME280;52488;47.502;18.940;2023-02-02T04:56:23;97745.63;;;1.15;94.54
65754;BME280;52488;47.502;18.940;2023-02-02T04:57:26;97744.50;;;1.11;94.47
65754;BME280;52488;47.502;18.940;2023-02-02T04:58:31;97745.56;;;1.08;94.52
65754;BME280;52488;47.502;18.940;2023-02-02T04:59:34;97752.97;;;1.07;94.49
65754;BME280;52488;47.502;18.940;2023-02-02T05:00:37;97746.63;;;1.04;94.67
65754;BME280;52488;47.502;18.940;2023-02-02T05:01:40;97743.53;;;1.00;94.74
65754;BME280;52488;47.502;18.940;2023-02-02T05:02:43;97749.06;;;0.95;95.04
65754;BME280;52488;47.502;18.940;2023-02-02T05:03:47;97752.16;;;0.99;95.06
65754;BME280;52488;47.502;18.940;2023-02-02T05:04:50;97750.69;;;0.98;95.08
65754;BME280;52488;47.502;18.940;2023-02-02T05:06:01;97749.25;;;0.97;95.00
65754;BME280;52488;47.502;18.940;2023-02-02T05:07:04;97752.69;;;0.97;95.05
65754;BME280;52488;47.502;18.940;2023-02-02T05:08:07;97737.72;;;0.96;95.01
65754;BME280;52488;47.502;18.940;2023-02-02T05:09:14;97744.44;;;1.03;94.85
65754;BME280;52488;47.502;18.940;2023-02-02T05:10:17;97746.53;;;0.97;94.75
65754;BME280;52488;47.502;18.940;2023-02-02T05:11:22;97732.44;;;0.91;94.91
65754;BME280;52488;47.502;18.940;2023-02-02T05:12:30;97738.56;;;0.91;95.16
65754;BME280;52488;47.502;18.940;2023-02-02T05:13:33;97731.03;;;0.97;94.95
65754;BME280;52488;47.502;18.940;2023-02-02T05:14:36;97738.44;;;0.97;94.88
65754;BME280;52488;47.502;18.940;2023-02-02T05:15:39;97732.72;;;1.00;94.83
65754;BME280;52488;47.502;18.940;2023-02-02T05:16:42;97734.47;;;0.98;94.57
65754;BME280;52488;47.502;18.940;2023-02-02T05:17:45;97734.78;;;0.94;94.68
65754;BME280;52488;47.502;18.940;2023-02-02T05:18:51;97743.25;;;0.91;94.77
65754;BME280;52488;47.502;18.940;2023-02-02T05:19:54;97748.72;;;0.98;94.85
65754;BME280;52488;47.502;18.940;2023-02-02T05:21:01;97750.50;;;0.96;94.56
65754;BME280;52488;47.502;18.940;2023-02-02T05:22:04;97745.53;;;0.87;94.66
65754;BME280;52488;47.502;18.940;2023-02-02T05:23:07;97738.50;;;0.84;94.92
65754;BME280;52488;47.502;18.940;2023-02-02T05:24:11;97738.25;;;0.82;95.11
65754;BME280;52488;47.502;18.940;2023-02-02T05:25:14;97750.22;;;0.86;95.11
65754;BME280;52488;47.502;18.940;2023-02-02T05:26:21;97749.91;;;0.90;94.99
65754;BME280;52488;47.502;18.940;2023-02-02T05:27:26;97758.75;;;0.90;94.95
65754;BME280;52488;47.502;18.940;2023-02-02T05:28:30;97754.91;;;0.86;94.89
65754;BME280;52488;47.502;18.940;2023-02-02T05:29:33;97753.75;;;0.81;95.18
65754;BME280;52488;47.502;18.940;2023-02-02T05:30:38;97758.97;;;0.79;95.49
65754;BME280;52488;47.502;18.940;2023-02-02T05:31:42;97761.16;;;0.81;95.52
65754;BME280;52488;47.502;18.940;2023-02-02T05:32:45;97766.38;;;0.78;95.59
65754;BME280;52488;47.502;18.940;2023-02-02T05:33:48;97755.34;;;0.76;95.60
65754;BME280;52488;47.502;18.940;2023-02-02T05:34:51;97763.06;;;0.72;95.63
65754;BME280;52488;47.502;18.940;2023-02-02T05:35:57;97769.91;;;0.73;95.76
65754;BME280;52488;47.502;18.940;2023-02-02T05:37:00;97768.84;;;0.76;95.74
65754;BME280;52488;47.502;18.940;2023-02-02T05:38:03;97768.75;;;0.82;95.54
65754;BME280;52488;47.502;18.940;2023-02-02T05:39:07;97768.34;;;0.78;95.44
65754;BME280;52488;47.502;18.940;2023-02-02T05:40:11;97764.69;;;0.75;95.51
65754;BME280;52488;47.502;18.940;2023-02-02T05:41:14;97760.75;;;0.76;95.45
65754;BME280;52488;47.502;18.940;2023-02-02T05:42:17;97771.38;;;0.74;95.51
65754;BME280;52488;47.502;18.940;2023-02-02T05:43:19;97776.03;;;0.74;95.43
65754;BME280;52488;47.502;18.940;2023-02-02T05:44:26;97770.41;;;0.72;95.55
65754;BME280;52488;47.502;18.940;2023-02-02T05:45:28;97776.13;;;0.82;95.23
65754;BME280;52488;47.502;18.940;2023-02-02T05:46:32;97771.16;;;0.72;95.17
65754;BME280;52488;47.502;18.940;2023-02-02T05:47:34;97790.47;;;0.76;95.17
65754;BME280;52488;47.502;18.940;2023-02-02T05:48:38;97776.03;;;0.74;95.08
65754;BME280;52488;47.502;18.940;2023-02-02T05:49:44;97774.06;;;0.74;95.08
65754;BME280;52488;47.502;18.940;2023-02-02T05:50:56;97776.03;;;0.74;95.16
65754;BME280;52488;47.502;18.940;2023-02-02T05:52:01;97784.16;;;0.74;95.20
65754;BME280;52488;47.502;18.940;2023-02-02T05:53:08;97791.53;;;0.73;95.20
65754;BME280;52488;47.502;18.940;2023-02-02T05:54:12;97789.16;;;0.70;95.22
65754;BME280;52488;47.502;18.940;2023-02-02T05:55:19;97786.12;;;0.73;95.25
65754;BME280;52488;47.502;18.940;2023-02-02T05:56:21;97774.97;;;0.77;95.05
65754;BME280;52488;47.502;18.940;2023-02-02T05:57:25;97787.28;;;0.78;94.90
65754;BME280;52488;47.502;18.940;2023-02-02T05:58:29;97780.72;;;0.73;94.96
65754;BME280;52488;47.502;18.940;2023-02-02T05:59:32;97772.09;;;0.75;94.95
65754;BME280;52488;47.502;18.940;2023-02-02T06:00:35;97773.88;;;0.72;94.84
65754;BME280;52488;47.502;18.940;2023-02-02T06:01:38;97782.81;;;0.67;95.00
65754;BME280;52488;47.502;18.940;2023-02-02T06:02:42;97785.31;;;0.65;95.24
65754;BME280;52488;47.502;18.940;2023-02-02T06:03:45;97783.94;;;0.72;95.12
65754;BME280;52488;47.502;18.940;2023-02-02T06:04:48;97783.00;;;0.69;95.08
65754;BME280;52488;47.502;18.940;2023-02-02T06:05:51;97786.03;;;0.66;95.26
65754;BME280;52488;47.502;18.940;2023-02-02T06:06:55;97793.63;;;0.67;95.33